sensor_id;sensor_type;location;lat;lon;timestamp;pressure;altitude;pressure_sealevel;temperature;humidity
62524;BME280;53689;56.878;60.672;2023-04-26T00:02:18;98569.41;;;24.74;20.85
62524;BME280;53689;56.878;60.672;2023-04-26T00:04:45;98567.75;;;24.73;20.56
62524;BME280;53689;56.878;60.672;2023-04-26T00:07:13;98574.22;;;24.72;20.52
62524;BME280;53689;56.878;60.672;2023-04-26T00:09:41;98574.00;;;24.73;20.89
62524;BME280;53689;56.878;60.672;2023-04-26T00:12:09;98572.53;;;24.71;20.52
62524;BME280;53689;56.878;60.672;2023-04-26T00:14:37;98576.28;;;24.70;20.51
62524;BME280;53689;56.878;60.672;2023-04-26T00:17:04;98574.63;;;24.69;21.03
62524;BME280;53689;56.878;60.672;2023-04-26T00:19:33;98578.19;;;24.69;20.65
62524;BME280;53689;56.878;60.672;2023-04-26T00:22:01;98572.31;;;24.72;20.88
62524;BME280;53689;56.878;60.672;2023-04-26T00:24:28;98575.03;;;24.72;20.96
62524;BME280;53689;56.878;60.672;2023-04-26T00:26:56;98573.81;;;24.68;20.98
62524;BME280;53689;56.878;60.672;2023-04-26T00:29:24;98572.53;;;24.64;20.69
62524;BME280;53689;56.878;60.672;2023-04-26T00:31:52;98576.72;;;24.66;20.66
62524;BME280;53689;56.878;60.672;2023-04-26T00:34:19;98576.72;;;24.66;20.60
62524;BME280;53689;56.878;60.672;2023-04-26T00:36:50;98577.13;;;24.70;20.41
62524;BME280;53689;56.878;60.672;2023-04-26T00:39:18;98578.38;;;24.67;20.60
62524;BME280;53689;56.878;60.672;2023-04-26T00:41:46;98582.13;;;24.66;20.83
62524;BME280;53689;56.878;60.672;2023-04-26T00:44:14;98594.44;;;24.62;21.19
62524;BME280;53689;56.878;60.672;2023-04-26T00:46:42;98588.78;;;24.64;20.54
62524;BME280;53689;56.878;60.672;2023-04-26T00:49:11;98593.81;;;24.67;20.65
62524;BME280;53689;56.878;60.672;2023-04-26T00:51:42;98600.88;;;24.68;20.47
62524;BME280;53689;56.878;60.672;2023-04-26T00:54:11;98592.13;;;24.66;20.71
62524;BME280;53689;56.878;60.672;2023-04-26T00:56:39;98597.53;;;24.66;20.99
62524;BME280;53689;56.878;60.672;2023-04-26T00:59:08;98592.53;;;24.63;20.99
62524;BME280;53689;56.878;60.672;2023-04-26T01:01:35;98595.47;;;24.68;21.21
62524;BME280;53689;56.878;60.672;2023-04-26T01:04:03;98600.25;;;24.66;20.65
62524;BME280;53689;56.878;60.672;2023-04-26T01:06:33;98598.56;;;24.65;21.24
62524;BME280;53689;56.878;60.672;2023-04-26T01:09:02;98596.50;;;24.67;20.51
62524;BME280;53689;56.878;60.672;2023-04-26T01:11:32;98590.06;;;24.68;20.70
62524;BME280;53689;56.878;60.672;2023-04-26T01:14:01;98590.47;;;24.72;20.81
62524;BME280;53689;56.878;60.672;2023-04-26T01:16:29;98588.56;;;24.72;21.16
62524;BME280;53689;56.878;60.672;2023-04-26T01:18:57;98580.88;;;24.76;21.02
62524;BME280;53689;56.878;60.672;2023-04-26T01:21:24;98581.31;;;24.79;20.83
62524;BME280;53689;56.878;60.672;2023-04-26T01:23:55;98582.75;;;24.89;20.75
62524;BME280;53689;56.878;60.672;2023-04-26T01:26:23;98580.00;;;25.02;20.40
62524;BME280;53689;56.878;60.672;2023-04-26T01:28:52;98579.19;;;24.95;20.05
62524;BME280;53689;56.878;60.672;2023-04-26T01:31:20;98580.03;;;24.89;20.37
62524;BME280;53689;56.878;60.672;2023-04-26T01:33:48;98580.03;;;24.89;20.24
62524;BME280;53689;56.878;60.672;2023-04-26T01:36:15;98582.13;;;24.87;20.32
62524;BME280;53689;56.878;60.672;2023-04-26T01:38:42;98580.47;;;24.86;20.85
62524;BME280;53689;56.878;60.672;2023-04-26T01:41:11;98575.06;;;24.86;20.74
62524;BME280;53689;56.878;60.672;2023-04-26T01:43:39;98582.94;;;24.87;20.24
62524;BME280;53689;56.878;60.672;2023-04-26T01:46:07;98578.78;;;24.85;20.97
62524;BME280;53689;56.878;60.672;2023-04-26T01:48:35;98576.91;;;24.85;20.78
62524;BME280;53689;56.878;60.672;2023-04-26T01:51:02;98567.34;;;24.83;20.07
62524;BME280;53689;56.878;60.672;2023-04-26T01:53:30;98572.56;;;24.84;20.76
62524;BME280;53689;56.878;60.672;2023-04-26T01:55:59;98573.16;;;24.86;20.80
62524;BME280;53689;56.878;60.672;2023-04-26T01:58:28;98565.25;;;24.85;20.30
62524;BME280;53689;56.878;60.672;2023-04-26T02:01:03;98567.94;;;24.85;20.38
62524;BME280;53689;56.878;60.672;2023-04-26T02:03:30;98563.59;;;24.84;20.86
62524;BME280;53689;56.878;60.672;2023-04-26T02:05:58;98567.34;;;24.83;20.41
62524;BME280;53689;56.878;60.672;2023-04-26T02:08:28;98560.06;;;24.83;20.91
62524;BME280;53689;56.878;60.672;2023-04-26T02:10:56;98565.69;;;24.82;20.96
62524;BME280;53689;56.878;60.672;2023-04-26T02:13:24;98564.63;;;24.83;20.13
62524;BME280;53689;56.878;60.672;2023-04-26T02:15:53;98564.44;;;24.84;20.17
62524;BME280;53689;56.878;60.672;2023-04-26T02:18:20;98558.41;;;24.82;20.80
62524;BME280;53689;56.878;60.672;2023-04-26T02:20:49;98560.47;;;24.87;20.01
62524;BME280;53689;56.878;60.672;2023-04-26T02:23:17;98564.00;;;24.87;20.42
62524;BME280;53689;56.878;60.672;2023-04-26T02:25:45;98556.28;;;24.91;20.13
62524;BME280;53689;56.878;60.672;2023-04-26T02:28:12;98561.69;;;24.91;20.80
62524;BME280;53689;56.878;60.672;2023-04-26T02:30:40;98559.00;;;24.91;20.30
62524;BME280;53689;56.878;60.672;2023-04-26T02:33:09;98557.94;;;24.92;20.30
62524;BME280;53689;56.878;60.672;2023-04-26T02:35:37;98556.28;;;24.91;20.34
62524;BME280;53689;56.878;60.672;2023-04-26T02:38:05;98551.31;;;24.88;20.80
62524;BME280;53689;56.878;60.672;2023-04-26T02:40:33;98554.63;;;24.90;20.15
62524;BME280;53689;56.878;60.672;2023-04-26T02:43:00;98548.81;;;24.79;20.71
62524;BME280;53689;56.878;60.672;2023-04-26T02:45:28;98546.56;;;24.43;21.76
62524;BME280;53689;56.878;60.672;2023-04-26T02:47:55;98548.03;;;24.11;22.68
62524;BME280;53689;56.878;60.672;2023-04-26T02:50:24;98551.94;;;23.89;23.11
62524;BME280;53689;56.878;60.672;2023-04-26T02:52:52;98545.44;;;23.69;23.60
62524;BME280;53689;56.878;60.672;2023-04-26T02:55:20;98545.22;;;23.58;23.35
62524;BME280;53689;56.878;60.672;2023-04-26T02:57:47;98546.28;;;23.63;23.21
62524;BME280;53689;56.878;60.672;2023-04-26T03:00:15;98541.19;;;23.33;23.03
62524;BME280;53689;56.878;60.672;2023-04-26T03:02:42;98550.59;;;23.02;23.15
62524;BME280;53689;56.878;60.672;2023-04-26T03:05:10;98543.38;;;23.09;23.60
62524;BME280;53689;56.878;60.672;2023-04-26T03:07:39;98552.09;;;23.11;23.54
62524;BME280;53689;56.878;60.672;2023-04-26T03:10:10;98553.44;;;23.29;23.11
62524;BME280;53689;56.878;60.672;2023-04-26T03:12:38;98554.75;;;23.47;24.63
62524;BME280;53689;56.878;60.672;2023-04-26T03:15:07;98555.06;;;23.99;22.80
62524;BME280;53689;56.878;60.672;2023-04-26T03:17:35;98548.84;;;24.19;22.13
62524;BME280;53689;56.878;60.672;2023-04-26T03:20:04;98558.41;;;24.42;21.30
62524;BME280;53689;56.878;60.672;2023-04-26T03:22:33;98541.16;;;24.49;20.81
62524;BME280;53689;56.878;60.672;2023-04-26T03:25:02;98539.88;;;24.59;21.32
62524;BME280;53689;56.878;60.672;2023-04-26T03:27:30;98544.22;;;24.66;21.08
62524;BME280;53689;56.878;60.672;2023-04-26T03:29:59;98539.84;;;24.79;20.52
62524;BME280;53689;56.878;60.672;2023-04-26T03:32:27;98540.69;;;24.79;20.76
62524;BME280;53689;56.878;60.672;2023-04-26T03:34:55;98530.28;;;24.76;20.59
62524;BME280;53689;56.878;60.672;2023-04-26T03:37:22;98534.63;;;24.77;20.97
62524;BME280;53689;56.878;60.672;2023-04-26T03:39:57;98532.56;;;24.79;20.88
62524;BME280;53689;56.878;60.672;2023-04-26T03:42:26;98533.63;;;24.78;20.86
62524;BME280;53689;56.878;60.672;2023-04-26T03:44:54;98544.63;;;24.84;21.11
62524;BME280;53689;56.878;60.672;2023-04-26T03:47:22;98537.97;;;24.86;20.98
62524;BME280;53689;56.878;60.672;2023-04-26T03:49:50;98536.91;;;24.87;20.26
62524;BME280;53689;56.878;60.672;2023-04-26T03:52:17;98542.53;;;24.92;20.15
62524;BME280;53689;56.878;60.672;2023-04-26T03:54:45;98535.47;;;24.85;20.19
62524;BME280;53689;56.878;60.672;2023-04-26T03:57:13;98535.66;;;24.90;20.67
62524;BME280;53689;56.878;60.672;2023-04-26T03:59:42;98529.84;;;24.86;20.31
62524;BME280;53689;56.878;60.672;2023-04-26T04:02:10;98533.78;;;24.84;20.27
62524;BME280;53689;56.878;60.672;2023-04-26T04:04:37;98527.56;;;24.83;20.38
62524;BME280;53689;56.878;60.672;2023-04-26T04:07:05;98526.97;;;24.81;21.05
62524;BME280;53689;56.878;60.672;2023-04-26T04:09:33;98524.66;;;24.78;20.47
62524;BME280;53689;56.878;60.672;2023-04-26T04:12:01;98527.16;;;24.79;20.45
62524;BME280;53689;56.878;60.672;2023-04-26T04:14:29;98526.09;;;24.74;20.51
62524;BME280;53689;56.878;60.672;2023-04-26T04:16:58;98520.69;;;24.74;20.66
62524;BME280;53689;56.878;60.672;2023-04-26T04:19:26;98516.31;;;24.73;21.02
62524;BME280;53689;56.878;60.672;2023-04-26T04:21:54;98520.47;;;24.69;21.10
62524;BME280;53689;56.878;60.672;2023-04-26T04:24:23;98519.44;;;24.70;20.53
62524;BME280;53689;56.878;60.672;2023-04-26T04:26:51;98514.66;;;24.65;21.29
62524;BME280;53689;56.878;60.672;2023-04-26T04:29:19;98518.63;;;24.69;20.84
62524;BME280;53689;56.878;60.672;2023-04-26T04:31:47;98515.28;;;24.67;21.32
62524;BME280;53689;56.878;60.672;2023-04-26T04:34:16;98511.75;;;24.66;21.40
62524;BME280;53689;56.878;60.672;2023-04-26T04:36:45;98504.66;;;24.72;20.84
62524;BME280;53689;56.878;60.672;2023-04-26T04:39:12;98506.75;;;24.70;21.23
62524;BME280;53689;56.878;60.672;2023-04-26T04:41:40;98498.63;;;24.70;20.61
62524;BME280;53689;56.878;60.672;2023-04-26T04:44:07;98496.09;;;24.75;21.02
62524;BME280;53689;56.878;60.672;2023-04-26T04:46:36;98498.41;;;24.72;20.53
62524;BME280;53689;56.878;60.672;2023-04-26T04:49:04;98496.09;;;24.75;21.34
62524;BME280;53689;56.878;60.672;2023-04-26T04:51:33;98495.28;;;24.75;21.38
62524;BME280;53689;56.878;60.672;2023-04-26T04:54:09;98484.47;;;24.68;21.04
62524;BME280;53689;56.878;60.672;2023-04-26T04:56:37;98490.53;;;24.57;21.63
62524;BME280;53689;56.878;60.672;2023-04-26T04:59:05;98483.69;;;24.47;21.97
62524;BME280;53689;56.878;60.672;2023-04-26T05:01:33;98485.78;;;24.38;21.65
62524;BME280;53689;56.878;60.672;2023-04-26T05:04:05;98480.22;;;24.06;24.29
62524;BME280;53689;56.878;60.672;2023-04-26T05:06:35;98473.53;;;24.16;23.37
62524;BME280;53689;56.878;60.672;2023-04-26T05:09:02;98481.44;;;23.90;23.52
62524;BME280;53689;56.878;60.672;2023-04-26T05:11:30;98474.34;;;23.89;24.11
62524;BME280;53689;56.878;60.672;2023-04-26T05:13:58;98484.53;;;23.80;25.04
62524;BME280;53689;56.878;60.672;2023-04-26T05:16:26;98476.84;;;23.77;24.05
62524;BME280;53689;56.878;60.672;2023-04-26T05:18:54;98478.09;;;23.88;24.22
62524;BME280;53689;56.878;60.672;2023-04-26T05:21:22;98474.78;;;23.73;24.48
62524;BME280;53689;56.878;60.672;2023-04-26T05:23:52;98477.69;;;24.05;23.42
62524;BME280;53689;56.878;60.672;2023-04-26T05:26:20;98474.34;;;24.03;23.22
62524;BME280;53689;56.878;60.672;2023-04-26T05:28:57;98473.94;;;24.06;23.90
62524;BME280;53689;56.878;60.672;2023-04-26T05:31:43;98469.81;;;24.10;23.96
62524;BME280;53689;56.878;60.672;2023-04-26T05:34:29;98474.56;;;24.08;24.40
62524;BME280;53689;56.878;60.672;2023-04-26T05:36:57;98474.38;;;24.09;23.80
62524;BME280;53689;56.878;60.672;2023-04-26T05:39:27;98469.78;;;24.23;24.69
62524;BME280;53689;56.878;60.672;2023-04-26T05:41:55;98466.03;;;23.97;24.39
62524;BME280;53689;56.878;60.672;2023-04-26T05:44:24;98456.25;;;24.23;24.04
62524;BME280;53689;56.878;60.672;2023-04-26T05:46:51;98460.84;;;24.03;23.99
62524;BME280;53689;56.878;60.672;2023-04-26T05:49:19;98454.81;;;24.07;24.26
62524;BME280;53689;56.878;60.672;2023-04-26T05:51:47;98457.28;;;24.02;24.72
62524;BME280;53689;56.878;60.672;2023-04-26T05:54:16;98452.31;;;24.13;23.33
62524;BME280;53689;56.878;60.672;2023-04-26T05:56:45;98444.59;;;23.89;24.17
62524;BME280;53689;56.878;60.672;2023-04-26T05:59:13;98442.75;;;24.10;24.08
62524;BME280;53689;56.878;60.672;2023-04-26T06:01:40;98439.38;;;24.35;23.59
62524;BME280;53689;56.878;60.672;2023-04-26T06:04:08;98437.25;;;24.50;21.97
62524;BME280;53689;56.878;60.672;2023-04-26T06:06:47;98431.06;;;24.30;22.74
62524;BME280;53689;56.878;60.672;2023-04-26T06:09:14;98429.41;;;24.29;24.53
62524;BME280;53689;56.878;60.672;2023-04-26T06:11:46;98432.13;;;24.15;24.45
62524;BME280;53689;56.878;60.672;2023-04-26T06:14:14;98421.09;;;24.23;23.13
62524;BME280;53689;56.878;60.672;2023-04-26T06:16:59;98423.34;;;24.40;22.31
62524;BME280;53689;56.878;60.672;2023-04-26T06:19:28;98426.88;;;24.41;23.08
62524;BME280;53689;56.878;60.672;2023-04-26T06:21:55;98414.19;;;24.41;22.85
62524;BME280;53689;56.878;60.672;2023-04-26T06:24:23;98416.16;;;24.66;22.36
62524;BME280;53689;56.878;60.672;2023-04-26T06:26:52;98413.50;;;24.52;22.01
62524;BME280;53689;56.878;60.672;2023-04-26T06:29:20;98410.78;;;24.59;22.60
62524;BME280;53689;56.878;60.672;2023-04-26T06:31:47;98416.22;;;24.52;22.71
62524;BME280;53689;56.878;60.672;2023-04-26T06:34:17;98407.69;;;24.49;22.89
62524;BME280;53689;56.878;60.672;2023-04-26T06:36:45;98404.97;;;24.49;22.62
62524;BME280;53689;56.878;60.672;2023-04-26T06:39:12;98405.34;;;24.59;22.33
62524;BME280;53689;56.878;60.672;2023-04-26T06:41:42;98392.66;;;24.60;21.72
62524;BME280;53689;56.878;60.672;2023-04-26T06:44:12;98398.13;;;24.53;22.80
62524;BME280;53689;56.878;60.672;2023-04-26T06:46:41;98403.25;;;24.61;22.17
62524;BME280;53689;56.878;60.672;2023-04-26T06:49:09;98391.34;;;24.76;21.63
62524;BME280;53689;56.878;60.672;2023-04-26T06:51:37;98393.47;;;24.67;23.61
62524;BME280;53689;56.878;60.672;2023-04-26T06:54:05;98393.88;;;24.64;24.83
62524;BME280;53689;56.878;60.672;2023-04-26T06:56:32;98393.75;;;24.52;22.70
62524;BME280;53689;56.878;60.672;2023-04-26T06:59:01;98392.38;;;24.75;21.96
62524;BME280;53689;56.878;60.672;2023-04-26T07:01:31;98393.75;;;24.98;21.37
62524;BME280;53689;56.878;60.672;2023-04-26T07:03:59;98389.88;;;25.19;20.59
62524;BME280;53689;56.878;60.672;2023-04-26T07:06:27;98392.03;;;25.10;20.86
62524;BME280;53689;56.878;60.672;2023-04-26T07:08:56;98386.25;;;25.32;20.19
62524;BME280;53689;56.878;60.672;2023-04-26T07:11:27;98386.19;;;25.39;19.89
62524;BME280;53689;56.878;60.672;2023-04-26T07:13:55;98379.50;;;25.16;20.37
62524;BME280;53689;56.878;60.672;2023-04-26T07:16:25;98373.31;;;25.02;20.09
62524;BME280;53689;56.878;60.672;2023-04-26T07:18:55;98372.06;;;25.04;20.80
62524;BME280;53689;56.878;60.672;2023-04-26T07:21:22;98372.31;;;24.96;20.65
62524;BME280;53689;56.878;60.672;2023-04-26T07:23:52;98365.69;;;25.24;19.78
62524;BME280;53689;56.878;60.672;2023-04-26T07:26:20;98367.22;;;25.13;20.87
62524;BME280;53689;56.878;60.672;2023-04-26T07:28:49;98360.25;;;25.24;19.78
62524;BME280;53689;56.878;60.672;2023-04-26T07:31:17;98362.97;;;25.24;20.21
62524;BME280;53689;56.878;60.672;2023-04-26T07:33:45;98343.88;;;25.38;19.74
62524;BME280;53689;56.878;60.672;2023-04-26T07:36:14;98351.28;;;25.24;20.05
62524;BME280;53689;56.878;60.672;2023-04-26T07:38:42;98346.19;;;25.08;19.88
62524;BME280;53689;56.878;60.672;2023-04-26T07:41:09;98351.00;;;25.06;20.23
62524;BME280;53689;56.878;60.672;2023-04-26T07:43:37;98352.06;;;25.31;19.31
62524;BME280;53689;56.878;60.672;2023-04-26T07:46:04;98347.53;;;25.25;20.14
62524;BME280;53689;56.878;60.672;2023-04-26T07:48:32;98342.56;;;25.47;21.51
62524;BME280;53689;56.878;60.672;2023-04-26T07:51:06;98335.66;;;25.51;19.15
62524;BME280;53689;56.878;60.672;2023-04-26T07:53:35;98335.47;;;25.46;19.54
62524;BME280;53689;56.878;60.672;2023-04-26T07:56:03;98327.53;;;25.51;19.71
62524;BME280;53689;56.878;60.672;2023-04-26T07:58:31;98327.44;;;25.65;19.02
62524;BME280;53689;56.878;60.672;2023-04-26T08:00:59;98320.09;;;25.40;19.29
62524;BME280;53689;56.878;60.672;2023-04-26T08:03:26;98320.28;;;25.19;19.42
62524;BME280;53689;56.878;60.672;2023-04-26T08:05:54;98320.03;;;25.21;20.85
62524;BME280;53689;56.878;60.672;2023-04-26T08:08:22;98316.56;;;25.14;20.35
62524;BME280;53689;56.878;60.672;2023-04-26T08:10:52;98316.91;;;25.24;19.30
62524;BME280;53689;56.878;60.672;2023-04-26T08:13:19;98320.16;;;25.07;20.33
62524;BME280;53689;56.878;60.672;2023-04-26T08:15:47;98327.28;;;25.02;20.29
62524;BME280;53689;56.878;60.672;2023-04-26T08:18:15;98321.53;;;25.17;19.53
62524;BME280;53689;56.878;60.672;2023-04-26T08:20:42;98317.31;;;25.53;19.30
62524;BME280;53689;56.878;60.672;2023-04-26T08:23:10;98319.69;;;25.43;19.05
62524;BME280;53689;56.878;60.672;2023-04-26T08:25:37;98313.09;;;25.32;20.30
62524;BME280;53689;56.878;60.672;2023-04-26T08:28:06;98314.81;;;25.26;19.26
62524;BME280;53689;56.878;60.672;2023-04-26T08:30:34;98318.66;;;25.12;19.68
62524;BME280;53689;56.878;60.672;2023-04-26T08:33:02;98310.31;;;25.13;19.80
62524;BME280;53689;56.878;60.672;2023-04-26T08:35:30;98304.91;;;25.13;19.39
62524;BME280;53689;56.878;60.672;2023-04-26T08:37:57;98308.88;;;25.36;19.07
62524;BME280;53689;56.878;60.672;2023-04-26T08:40:25;98310.84;;;25.22;19.21
62524;BME280;53689;56.878;60.672;2023-04-26T08:42:53;98299.47;;;25.64;18.51
62524;BME280;53689;56.878;60.672;2023-04-26T08:45:23;98304.75;;;25.59;18.03
62524;BME280;53689;56.878;60.672;2023-04-26T08:47:52;98310.84;;;25.29;19.37
62524;BME280;53689;56.878;60.672;2023-04-26T08:50:23;98306.22;;;25.55;18.21
62524;BME280;53689;56.878;60.672;2023-04-26T08:52:51;98305.56;;;25.59;19.28
62524;BME280;53689;56.878;60.672;2023-04-26T08:55:19;98308.44;;;25.65;18.38
62524;BME280;53689;56.878;60.672;2023-04-26T08:57:48;98309.03;;;25.67;18.83
62524;BME280;53689;56.878;60.672;2023-04-26T09:00:16;98309.72;;;25.62;18.91
62524;BME280;53689;56.878;60.672;2023-04-26T09:02:48;98322.00;;;25.39;18.88
62524;BME280;53689;56.878;60.672;2023-04-26T09:05:16;98310.78;;;25.61;19.63
62524;BME280;53689;56.878;60.672;2023-04-26T09:07:45;98315.72;;;25.89;18.57
62524;BME280;53689;56.878;60.672;2023-04-26T09:10:16;98322.31;;;25.75;18.49
62524;BME280;53689;56.878;60.672;2023-04-26T09:12:45;98327.59;;;25.88;17.74
62524;BME280;53689;56.878;60.672;2023-04-26T09:15:13;98321.72;;;25.73;18.43
62524;BME280;53689;56.878;60.672;2023-04-26T09:17:41;98329.53;;;25.62;18.38
62524;BME280;53689;56.878;60.672;2023-04-26T09:20:21;98329.09;;;25.66;19.12
62524;BME280;53689;56.878;60.672;2023-04-26T09:22:51;98329.16;;;25.59;19.34
62524;BME280;53689;56.878;60.672;2023-04-26T09:25:27;98327.75;;;25.75;18.70
62524;BME280;53689;56.878;60.672;2023-04-26T09:27:56;98331.06;;;25.96;18.68
62524;BME280;53689;56.878;60.672;2023-04-26T09:30:23;98329.59;;;25.49;18.71
62524;BME280;53689;56.878;60.672;2023-04-26T09:32:53;98334.94;;;24.73;21.94
62524;BME280;53689;56.878;60.672;2023-04-26T09:35:26;98330.72;;;24.38;22.10
62524;BME280;53689;56.878;60.672;2023-04-26T09:37:55;98331.72;;;25.47;19.37
62524;BME280;53689;56.878;60.672;2023-04-26T09:40:28;98332.56;;;25.47;19.27
62524;BME280;53689;56.878;60.672;2023-04-26T09:43:01;98336.88;;;24.98;24.75
62524;BME280;53689;56.878;60.672;2023-04-26T09:45:31;98340.16;;;25.06;21.33
62524;BME280;53689;56.878;60.672;2023-04-26T09:48:15;98330.59;;;25.29;20.13
62524;BME280;53689;56.878;60.672;2023-04-26T09:50:45;98333.16;;;25.24;21.08
62524;BME280;53689;56.878;60.672;2023-04-26T09:53:24;98328.75;;;25.55;20.59
62524;BME280;53689;56.878;60.672;2023-04-26T09:55:52;98338.59;;;25.24;20.33
62524;BME280;53689;56.878;60.672;2023-04-26T09:58:20;98333.63;;;25.72;18.82
62524;BME280;53689;56.878;60.672;2023-04-26T10:00:49;98339.91;;;25.15;20.63
62524;BME280;53689;56.878;60.672;2023-04-26T10:03:18;98331.97;;;25.71;19.00
62524;BME280;53689;56.878;60.672;2023-04-26T10:05:47;98324.84;;;25.70;18.81
62524;BME280;53689;56.878;60.672;2023-04-26T10:08:15;98342.00;;;24.80;22.52
62524;BME280;53689;56.878;60.672;2023-04-26T10:10:44;98336.94;;;25.23;19.15
62524;BME280;53689;56.878;60.672;2023-04-26T10:13:12;98334.44;;;25.72;18.61
62524;BME280;53689;56.878;60.672;2023-04-26T10:15:41;98332.78;;;25.46;19.49
62524;BME280;53689;56.878;60.672;2023-04-26T10:18:09;98342.69;;;24.56;22.32
62524;BME280;53689;56.878;60.672;2023-04-26T10:20:39;98343.84;;;24.28;21.21
62524;BME280;53689;56.878;60.672;2023-04-26T10:23:15;98360.25;;;24.39;22.72
62524;BME280;53689;56.878;60.672;2023-04-26T10:25:44;98358.78;;;24.96;21.17
62524;BME280;53689;56.878;60.672;2023-04-26T10:28:12;98349.63;;;25.23;20.03
62524;BME280;53689;56.878;60.672;2023-04-26T10:30:56;98369.53;;;25.35;19.34
62524;BME280;53689;56.878;60.672;2023-04-26T10:33:26;98377.09;;;24.94;20.30
62524;BME280;53689;56.878;60.672;2023-04-26T10:36:02;98394.88;;;24.10;22.45
62524;BME280;53689;56.878;60.672;2023-04-26T10:38:32;98380.34;;;23.78;21.79
62524;BME280;53689;56.878;60.672;2023-04-26T10:41:31;98395.66;;;24.31;21.67
62524;BME280;53689;56.878;60.672;2023-04-26T10:47:00;98429.97;;;25.10;21.12
62524;BME280;53689;56.878;60.672;2023-04-26T10:49:28;98430.25;;;25.27;19.92
62524;BME280;53689;56.878;60.672;2023-04-26T10:52:10;98410.16;;;25.10;20.19
62524;BME280;53689;56.878;60.672;2023-04-26T10:55:01;98418.63;;;24.74;22.72
62524;BME280;53689;56.878;60.672;2023-04-26T10:57:49;98407.91;;;24.54;21.46
62524;BME280;53689;56.878;60.672;2023-04-26T11:00:24;98420.69;;;23.46;25.55
62524;BME280;53689;56.878;60.672;2023-04-26T11:03:08;98402.41;;;23.68;25.53
62524;BME280;53689;56.878;60.672;2023-04-26T11:05:47;98335.66;;;23.82;25.88
62524;BME280;53689;56.878;60.672;2023-04-26T11:08:18;98302.56;;;23.80;25.83
62524;BME280;53689;56.878;60.672;2023-04-26T11:10:56;98300.03;;;24.12;25.15
62524;BME280;53689;56.878;60.672;2023-04-26T11:13:24;98302.09;;;24.17;24.76
62524;BME280;53689;56.878;60.672;2023-04-26T11:15:52;98295.66;;;24.04;25.34
62524;BME280;53689;56.878;60.672;2023-04-26T11:18:20;98305.63;;;24.04;25.99
62524;BME280;53689;56.878;60.672;2023-04-26T11:20:48;98302.72;;;24.12;25.85
62524;BME280;53689;56.878;60.672;2023-04-26T11:23:17;98286.66;;;24.24;25.07
62524;BME280;53689;56.878;60.672;2023-04-26T11:25:45;98276.69;;;24.18;26.46
62524;BME280;53689;56.878;60.672;2023-04-26T11:28:14;98262.97;;;24.13;25.99
62524;BME280;53689;56.878;60.672;2023-04-26T11:30:42;98259.47;;;24.12;26.36
62524;BME280;53689;56.878;60.672;2023-04-26T11:33:16;98261.16;;;24.06;26.01
62524;BME280;53689;56.878;60.672;2023-04-26T11:35:45;98260.50;;;24.04;25.86
62524;BME280;53689;56.878;60.672;2023-04-26T11:38:12;98262.44;;;24.36;25.25
62524;BME280;53689;56.878;60.672;2023-04-26T11:40:40;98265.97;;;24.43;24.59
62524;BME280;53689;56.878;60.672;2023-04-26T11:43:08;98272.41;;;24.42;25.93
62524;BME280;53689;56.878;60.672;2023-04-26T11:45:38;98281.38;;;24.36;25.31
62524;BME280;53689;56.878;60.672;2023-04-26T11:48:06;98270.44;;;24.17;27.09
62524;BME280;53689;56.878;60.672;2023-04-26T11:50:38;98266.69;;;24.18;27.38
62524;BME280;53689;56.878;60.672;2023-04-26T11:53:07;98273.38;;;24.02;28.18
62524;BME280;53689;56.878;60.672;2023-04-26T11:55:35;98271.00;;;23.67;29.45
62524;BME280;53689;56.878;60.672;2023-04-26T11:58:10;98254.72;;;23.87;29.00
62524;BME280;53689;56.878;60.672;2023-04-26T12:00:58;98234.34;;;23.84;27.89
62524;BME280;53689;56.878;60.672;2023-04-26T12:03:29;98245.94;;;23.98;27.41
62524;BME280;53689;56.878;60.672;2023-04-26T12:05:57;98259.25;;;24.00;28.11
62524;BME280;53689;56.878;60.672;2023-04-26T12:08:25;98253.06;;;23.86;28.59
62524;BME280;53689;56.878;60.672;2023-04-26T12:10:57;98252.28;;;23.72;28.22
62524;BME280;53689;56.878;60.672;2023-04-26T12:13:25;98231.91;;;23.76;27.56
62524;BME280;53689;56.878;60.672;2023-04-26T12:15:52;98236.41;;;23.89;28.45
62524;BME280;53689;56.878;60.672;2023-04-26T12:18:28;98223.34;;;23.79;28.60
62524;BME280;53689;56.878;60.672;2023-04-26T12:20:58;98223.50;;;23.98;27.98
62524;BME280;53689;56.878;60.672;2023-04-26T12:23:26;98220.44;;;23.81;28.59
62524;BME280;53689;56.878;60.672;2023-04-26T12:25:55;98216.56;;;23.63;29.20
62524;BME280;53689;56.878;60.672;2023-04-26T12:28:23;98206.34;;;23.65;29.10
62524;BME280;53689;56.878;60.672;2023-04-26T12:30:51;98213.19;;;23.75;29.47
62524;BME280;53689;56.878;60.672;2023-04-26T12:33:18;98210.00;;;23.84;28.75
62524;BME280;53689;56.878;60.672;2023-04-26T12:35:47;98205.34;;;23.60;29.58
62524;BME280;53689;56.878;60.672;2023-04-26T12:38:15;98216.13;;;23.66;29.71
62524;BME280;53689;56.878;60.672;2023-04-26T12:40:43;98208.63;;;23.68;29.15
62524;BME280;53689;56.878;60.672;2023-04-26T12:43:13;98204.03;;;23.76;28.62
62524;BME280;53689;56.878;60.672;2023-04-26T12:45:41;98201.13;;;23.77;28.35
62524;BME280;53689;56.878;60.672;2023-04-26T12:48:08;98192.78;;;23.86;28.13
62524;BME280;53689;56.878;60.672;2023-04-26T12:50:36;98179.50;;;23.77;28.59
62524;BME280;53689;56.878;60.672;2023-04-26T12:53:05;98180.41;;;23.58;29.47
62524;BME280;53689;56.878;60.672;2023-04-26T12:55:32;98176.94;;;23.89;28.24
62524;BME280;53689;56.878;60.672;2023-04-26T12:58:00;98163.16;;;24.04;27.88
62524;BME280;53689;56.878;60.672;2023-04-26T13:00:28;98155.28;;;23.96;27.36
62524;BME280;53689;56.878;60.672;2023-04-26T13:02:56;98150.78;;;23.83;28.27
62524;BME280;53689;56.878;60.672;2023-04-26T13:05:24;98157.78;;;23.91;28.49